createdAt,value
2018-08-09T00:00:11.881Z,17.37
2018-08-09T00:02:44.720Z,18.97
2018-08-09T00:05:17.829Z,18.33
2018-08-09T00:07:50.103Z,17.03
2018-08-09T00:10:22.401Z,17.03
2018-08-09T00:12:54.819Z,16.77
2018-08-09T00:15:27.435Z,16.63
2018-08-09T00:17:59.806Z,19.43
2018-08-09T00:20:32.010Z,17.73
2018-08-09T00:23:04.250Z,19.23
2018-08-09T00:25:36.188Z,17.83
2018-08-09T00:28:08.759Z,18.03
2018-08-09T00:30:41.115Z,18.93
2018-08-09T00:33:13.382Z,19.93
2018-08-09T00:35:47.109Z,17.47
2018-08-09T00:38:19.993Z,18.30
2018-08-09T00:40:52.352Z,18.10
2018-08-09T00:43:24.774Z,18.00
2018-08-09T00:45:56.628Z,17.77
2018-08-09T00:48:28.630Z,18.50
2018-08-09T00:51:00.664Z,18.37
2018-08-09T00:53:32.932Z,17.33
2018-08-09T00:56:05.231Z,18.17
2018-08-09T00:58:37.592Z,18.80
2018-08-09T01:01:10.148Z,17.93
2018-08-09T01:03:43.356Z,17.23
2018-08-09T01:06:15.176Z,18.93
2018-08-09T01:08:51.551Z,17.87
2018-08-09T01:11:23.965Z,17.60
2018-08-09T01:13:56.330Z,17.07
2018-08-09T01:16:29.891Z,18.53
2018-08-09T01:19:02.125Z,18.57
2018-08-09T01:21:34.749Z,19.60
2018-08-09T01:24:07.213Z,17.50
2018-08-09T01:26:39.875Z,18.97
2018-08-09T01:29:12.078Z,18.00
2018-08-09T01:31:44.405Z,18.40
2018-08-09T01:34:17.190Z,17.90
2018-08-09T01:36:50.999Z,17.33
2018-08-09T01:39:23.571Z,17.00
2018-08-09T01:42:05.122Z,18.80
2018-08-09T01:44:38.847Z,17.83
2018-08-09T01:47:11.657Z,16.10
2018-08-09T01:49:44.408Z,17.80
2018-08-09T01:52:16.925Z,18.07
2018-08-09T01:54:49.355Z,17.17
2018-08-09T01:57:21.795Z,17.90
2018-08-09T01:59:54.273Z,16.60
2018-08-09T02:02:26.658Z,15.60
2018-08-09T02:04:59.176Z,17.83
2018-08-09T02:07:31.866Z,17.20
2018-08-09T02:10:04.458Z,18.17
2018-08-09T02:12:37.098Z,16.70
2018-08-09T02:15:09.656Z,17.60
2018-08-09T02:17:42.010Z,16.43
2018-08-09T02:20:14.801Z,17.33
2018-08-09T02:22:47.359Z,17.47
2018-08-09T02:25:19.578Z,16.73
2018-08-09T02:27:51.747Z,17.30
2018-08-09T02:30:24.556Z,16.73
2018-08-09T02:32:56.683Z,14.30
2018-08-09T02:35:29.333Z,15.50
2018-08-09T02:38:01.599Z,16.40
2018-08-09T02:40:34.143Z,15.20
2018-08-09T02:43:06.601Z,16.03
2018-08-09T02:45:38.785Z,17.00
2018-08-09T02:48:10.887Z,15.67
2018-08-09T02:50:43.732Z,14.70
2018-08-09T02:53:16.111Z,15.33
2018-08-09T02:55:48.591Z,15.80
2018-08-09T02:58:21.079Z,15.63
2018-08-09T03:00:53.503Z,15.33
2018-08-09T03:03:25.688Z,16.43
2018-08-09T03:05:58.178Z,14.87
2018-08-09T03:08:30.750Z,16.10
2018-08-09T03:11:03.380Z,15.87
2018-08-09T03:13:35.913Z,15.37
2018-08-09T03:16:08.154Z,14.77
2018-08-09T03:18:40.349Z,15.20
2018-08-09T03:21:12.643Z,15.37
2018-08-09T03:23:45.000Z,14.33
2018-08-09T03:26:17.438Z,14.20
2018-08-09T03:28:50.209Z,14.43
2018-08-09T03:31:22.664Z,14.63
2018-08-09T03:34:01.264Z,15.83
2018-08-09T03:36:33.159Z,14.73
2018-08-09T03:39:06.060Z,14.87
2018-08-09T03:41:38.707Z,14.30
2018-08-09T03:44:10.861Z,14.30
2018-08-09T03:46:44.359Z,14.10
2018-08-09T03:49:16.927Z,15.30
2018-08-09T03:51:49.324Z,15.27
2018-08-09T03:54:22.187Z,15.10
2018-08-09T03:56:54.716Z,16.80
2018-08-09T03:59:27.540Z,16.10
2018-08-09T04:01:59.963Z,17.53
2018-08-09T04:04:32.438Z,15.77
2018-08-09T04:07:04.418Z,15.10
2018-08-09T04:09:36.468Z,16.50
2018-08-09T04:12:08.971Z,16.53
2018-08-09T04:14:41.970Z,14.27
2018-08-09T04:17:19.875Z,14.63
2018-08-09T04:19:53.257Z,11.63
2018-08-09T04:22:25.739Z,10.10
2018-08-09T04:24:58.049Z,11.43
2018-08-09T04:27:30.718Z,11.90
2018-08-09T04:30:03.407Z,10.87
2018-08-09T04:32:36.017Z,11.80
2018-08-09T04:35:08.449Z,9.97
2018-08-09T04:37:41.342Z,9.80
2018-08-09T04:40:16.606Z,7.50
2018-08-09T04:42:48.557Z,8.17
2018-08-09T04:45:21.000Z,8.17
2018-08-09T04:47:54.891Z,7.30
2018-08-09T04:50:27.503Z,7.30
2018-08-09T04:53:00.734Z,6.83
2018-08-09T04:55:33.551Z,6.67
2018-08-09T04:58:06.237Z,6.77
2018-08-09T05:00:38.974Z,6.90
2018-08-09T05:03:10.995Z,7.20
2018-08-09T05:05:42.860Z,7.20
2018-08-09T05:08:15.295Z,7.43
2018-08-09T05:10:47.840Z,6.40
2018-08-09T05:13:20.325Z,6.03
2018-08-09T05:15:52.909Z,5.33
2018-08-09T05:18:25.042Z,6.23
2018-08-09T05:20:57.423Z,7.57
2018-08-09T05:23:29.624Z,5.83
2018-08-09T05:26:01.972Z,5.23
2018-08-09T05:28:34.475Z,4.63
2018-08-09T05:31:06.935Z,5.27
2018-08-09T05:33:38.943Z,5.27
2018-08-09T05:36:10.852Z,4.93
2018-08-09T05:38:42.946Z,5.80
2018-08-09T05:41:15.481Z,5.07
2018-08-09T05:43:47.657Z,5.33
2018-08-09T05:46:19.598Z,5.50
2018-08-09T05:48:51.810Z,5.47
2018-08-09T05:51:24.747Z,5.77
2018-08-09T05:53:57.375Z,4.97
2018-08-09T05:56:29.879Z,4.93
2018-08-09T05:59:01.782Z,5.13
2018-08-09T06:01:34.321Z,4.90
2018-08-09T06:04:07.256Z,5.37
2018-08-09T06:06:39.701Z,5.80
2018-08-09T06:09:14.142Z,4.70
2018-08-09T06:11:46.386Z,5.43
2018-08-09T06:14:18.655Z,4.53
2018-08-09T06:16:51.134Z,5.60
2018-08-09T06:19:23.243Z,5.90
2018-08-09T06:21:55.374Z,5.07
2018-08-09T06:24:27.892Z,4.53
2018-08-09T06:27:00.174Z,5.50
2018-08-09T06:29:32.372Z,5.00
2018-08-09T06:32:04.494Z,5.63
2018-08-09T06:34:36.984Z,5.13
2018-08-09T06:37:09.587Z,5.20
2018-08-09T06:39:42.830Z,5.47
2018-08-09T06:42:15.598Z,5.27
2018-08-09T06:44:48.263Z,5.67
2018-08-09T06:47:20.566Z,5.80
2018-08-09T06:49:52.741Z,5.37
2018-08-09T06:52:25.138Z,5.20
2018-08-09T06:54:57.607Z,5.27
2018-08-09T06:57:30.031Z,5.73
2018-08-09T07:00:02.606Z,5.77
2018-08-09T07:02:34.994Z,5.20
2018-08-09T07:05:08.022Z,4.93
2018-08-09T07:07:40.967Z,5.37
2018-08-09T07:10:13.411Z,5.93
2018-08-09T07:12:46.674Z,5.20
2018-08-09T07:15:19.770Z,6.00
2018-08-09T07:17:51.889Z,5.00
2018-08-09T07:20:24.425Z,5.50
2018-08-09T07:22:57.059Z,5.90
2018-08-09T07:25:29.391Z,5.93
2018-08-09T07:28:02.282Z,5.30
2018-08-09T07:30:34.902Z,4.90
2018-08-09T07:33:07.449Z,5.87
2018-08-09T07:35:39.711Z,5.10
2018-08-09T07:38:12.051Z,6.33
2018-08-09T07:40:44.609Z,6.00
2018-08-09T07:43:17.719Z,5.80
2018-08-09T07:45:50.053Z,5.43
2018-08-09T07:48:22.611Z,5.40
2018-08-09T07:50:55.178Z,5.30
2018-08-09T07:53:28.180Z,5.50
2018-08-09T07:56:00.628Z,6.20
2018-08-09T07:58:33.423Z,7.07
2018-08-09T08:01:05.852Z,5.63
2018-08-09T08:03:38.148Z,5.90
2018-08-09T08:06:10.856Z,5.93
2018-08-09T08:08:43.393Z,6.13
2018-08-09T08:11:16.026Z,6.03
2018-08-09T08:13:48.280Z,6.40
2018-08-09T08:16:20.467Z,6.60
2018-08-09T08:18:52.969Z,5.10
2018-08-09T08:21:25.037Z,6.13
2018-08-09T08:23:57.669Z,6.87
2018-08-09T08:26:30.158Z,6.47
2018-08-09T08:29:02.581Z,6.57
2018-08-09T08:31:34.736Z,6.47
2018-08-09T08:34:07.260Z,5.87
2018-08-09T08:36:40.106Z,6.10
2018-08-09T08:39:12.493Z,5.90
2018-08-09T08:41:44.959Z,6.10
2018-08-09T08:44:17.638Z,5.93
2018-08-09T08:46:50.021Z,6.63
2018-08-09T08:49:22.372Z,6.53
2018-08-09T08:51:54.762Z,6.97
2018-08-09T08:54:27.118Z,6.50
2018-08-09T08:56:59.729Z,7.17
2018-08-09T08:59:32.153Z,7.27
2018-08-09T09:02:04.747Z,6.40
2018-08-09T09:04:37.251Z,6.50
2018-08-09T09:07:09.677Z,5.93
2018-08-09T09:09:42.132Z,6.40
2018-08-09T09:12:14.767Z,6.03
2018-08-09T09:14:47.982Z,6.83
2018-08-09T09:17:20.602Z,6.57
2018-08-09T09:19:53.305Z,6.10
2018-08-09T09:22:26.976Z,6.73
2018-08-09T09:24:59.658Z,6.47
2018-08-09T09:27:32.049Z,7.23
2018-08-09T09:30:05.234Z,7.37
2018-08-09T09:32:37.866Z,7.70
2018-08-09T09:35:10.835Z,7.30
2018-08-09T09:37:43.572Z,8.10
2018-08-09T09:40:15.938Z,6.90
2018-08-09T09:42:48.290Z,7.77
2018-08-09T09:45:21.405Z,6.40
2018-08-09T09:47:53.571Z,7.80
2018-08-09T09:50:25.944Z,6.23
2018-08-09T09:52:58.335Z,6.40
2018-08-09T09:55:31.372Z,6.70
2018-08-09T09:58:03.913Z,6.50
2018-08-09T10:00:40.791Z,7.40
2018-08-09T10:03:13.371Z,7.97
2018-08-09T10:05:45.940Z,7.10
2018-08-09T10:08:18.068Z,7.03
2018-08-09T10:10:50.380Z,7.63
2018-08-09T10:13:23.010Z,8.10
2018-08-09T10:15:55.436Z,7.50
2018-08-09T10:18:27.732Z,7.00
2018-08-09T10:21:00.559Z,7.40
2018-08-09T10:23:33.201Z,7.17
2018-08-09T10:26:05.556Z,7.37
2018-08-09T10:28:37.909Z,7.50
2018-08-09T10:31:10.663Z,7.20
2018-08-09T10:33:43.083Z,7.27
2018-08-09T10:36:15.041Z,7.70
2018-08-09T10:38:47.401Z,7.37
2018-08-09T10:41:19.581Z,8.03
2018-08-09T10:43:52.599Z,8.00
2018-08-09T10:46:25.005Z,7.77
2018-08-09T10:48:58.186Z,7.70
2018-08-09T10:51:30.548Z,7.93
2018-08-09T10:54:03.368Z,8.00
2018-08-09T10:56:35.796Z,8.50
2018-08-09T10:59:08.074Z,8.70
2018-08-09T11:01:40.940Z,8.03
2018-08-09T11:04:13.411Z,8.67
2018-08-09T11:06:45.801Z,7.53
2018-08-09T11:09:18.315Z,8.80
2018-08-09T11:11:50.963Z,8.97
2018-08-09T11:14:23.453Z,8.80
2018-08-09T11:16:55.786Z,8.03
2018-08-09T11:19:28.041Z,9.53
2018-08-09T11:22:00.213Z,7.60
2018-08-09T11:24:32.347Z,8.63
2018-08-09T11:27:04.706Z,10.13
2018-08-09T11:29:37.183Z,8.97
2018-08-09T11:32:09.863Z,9.00
2018-08-09T11:34:42.286Z,9.10
2018-08-09T11:37:14.593Z,10.07
2018-08-09T11:39:46.864Z,10.10
2018-08-09T11:42:19.379Z,9.50
2018-08-09T11:44:51.909Z,9.93
2018-08-09T11:47:24.249Z,10.40
2018-08-09T11:49:56.786Z,9.63
2018-08-09T11:52:29.535Z,10.40
2018-08-09T11:55:01.908Z,9.80
2018-08-09T11:57:34.219Z,10.33
2018-08-09T12:00:08.276Z,10.70
2018-08-09T12:02:40.634Z,12.03
2018-08-09T12:05:14.416Z,12.20
2018-08-09T12:07:46.866Z,11.33
2018-08-09T12:10:19.218Z,11.23
2018-08-09T12:12:51.776Z,10.67
2018-08-09T12:15:24.520Z,12.00
2018-08-09T12:17:56.828Z,12.20
2018-08-09T12:20:29.475Z,12.03
2018-08-09T12:23:01.839Z,12.63
2018-08-09T12:25:34.174Z,13.10
2018-08-09T12:28:07.094Z,12.23
2018-08-09T12:30:39.644Z,13.50
2018-08-09T12:33:12.651Z,12.53
2018-08-09T12:35:45.238Z,14.10
2018-08-09T12:38:17.690Z,13.83
2018-08-09T12:40:49.927Z,13.70
2018-08-09T12:43:22.735Z,14.33
2018-08-09T12:45:55.491Z,13.17
2018-08-09T12:48:27.977Z,14.57
2018-08-09T12:51:00.491Z,15.50
2018-08-09T12:53:33.057Z,13.70
2018-08-09T12:56:05.620Z,15.00
2018-08-09T12:58:38.331Z,15.97
2018-08-09T13:01:11.482Z,15.00
2018-08-09T13:03:43.925Z,16.57
2018-08-09T13:06:16.684Z,17.03
2018-08-09T13:08:49.077Z,14.00
2018-08-09T13:11:23.822Z,16.50
2018-08-09T13:13:56.975Z,17.70
2018-08-09T13:16:29.771Z,16.83
2018-08-09T13:19:02.445Z,17.40
2018-08-09T13:21:35.307Z,18.73
2018-08-09T13:24:07.889Z,18.00
2018-08-09T13:26:40.029Z,16.20
2018-08-09T13:29:12.704Z,16.70
2018-08-09T13:31:45.564Z,17.70
2018-08-09T13:34:18.174Z,17.20
2018-08-09T13:36:50.943Z,18.33
2018-08-09T13:39:23.531Z,18.00
2018-08-09T13:41:55.942Z,16.13
2018-08-09T13:44:28.282Z,17.43
2018-08-09T13:47:00.700Z,18.00
2018-08-09T13:49:35.071Z,18.70
2018-08-09T13:52:07.589Z,18.37
2018-08-09T13:54:40.681Z,17.17
2018-08-09T13:57:12.841Z,17.67
2018-08-09T13:59:45.710Z,16.30
2018-08-09T14:02:18.225Z,15.80
2018-08-09T14:04:50.751Z,16.47
2018-08-09T14:07:23.118Z,16.53
2018-08-09T14:09:55.592Z,16.83
2018-08-09T14:12:29.844Z,16.97
2018-08-09T14:15:02.522Z,15.50
2018-08-09T14:17:35.711Z,18.03
2018-08-09T14:20:09.457Z,16.00
2018-08-09T14:22:41.651Z,15.70
2018-08-09T14:25:14.337Z,17.70
2018-08-09T14:27:46.839Z,15.90
2018-08-09T14:30:19.242Z,15.80
2018-08-09T14:32:51.747Z,15.40
2018-08-09T14:35:24.199Z,15.27
2018-08-09T14:37:56.588Z,15.00
2018-08-09T14:40:29.513Z,16.33
2018-08-09T14:43:01.949Z,16.10
2018-08-09T14:45:34.718Z,14.67
2018-08-09T14:48:07.890Z,14.43
2018-08-09T14:50:40.321Z,14.17
2018-08-09T14:53:12.980Z,14.00
2018-08-09T14:55:45.721Z,14.13
2018-08-09T14:58:18.070Z,14.13
2018-08-09T15:00:50.685Z,13.30
2018-08-09T15:03:23.032Z,13.20
2018-08-09T15:05:55.364Z,14.17
2018-08-09T15:08:27.696Z,12.20
2018-08-09T15:11:00.396Z,12.67
2018-08-09T15:13:33.332Z,12.67
2018-08-09T15:16:05.774Z,12.20
2018-08-09T15:18:38.064Z,12.67
2018-08-09T15:21:10.922Z,12.53
2018-08-09T15:23:44.372Z,10.33
2018-08-09T15:26:17.031Z,11.17
2018-08-09T15:28:50.144Z,9.87
2018-08-09T15:31:23.350Z,8.70
2018-08-09T15:33:55.621Z,11.77
2018-08-09T15:36:28.167Z,11.27
2018-08-09T15:39:00.490Z,8.30
2018-08-09T15:41:33.150Z,10.63
2018-08-09T15:44:05.810Z,9.90
2018-08-09T15:46:38.491Z,9.50
2018-08-09T15:49:10.966Z,9.77
2018-08-09T15:51:43.863Z,9.50
2018-08-09T15:54:16.348Z,8.03
2018-08-09T15:56:48.922Z,7.67
2018-08-09T15:59:21.472Z,8.17
2018-08-09T16:01:53.877Z,7.53
2018-08-09T16:04:26.868Z,10.00
2018-08-09T16:06:59.359Z,8.80
2018-08-09T16:09:31.943Z,8.47
2018-08-09T16:12:04.227Z,7.30
2018-08-09T16:14:36.958Z,8.47
2018-08-09T16:17:09.403Z,7.90
2018-08-09T16:19:42.081Z,7.03
2018-08-09T16:22:14.823Z,6.77
2018-08-09T16:24:47.425Z,7.23
2018-08-09T16:27:19.592Z,6.70
2018-08-09T16:29:52.128Z,6.50
2018-08-09T16:32:24.560Z,6.90
2018-08-09T16:34:56.878Z,7.37
2018-08-09T16:37:29.291Z,6.57
2018-08-09T16:40:01.622Z,7.43
2018-08-09T16:42:34.845Z,6.90
2018-08-09T16:45:07.265Z,6.90
2018-08-09T16:47:40.165Z,6.83
2018-08-09T16:50:15.014Z,6.47
2018-08-09T16:52:48.660Z,6.07
2018-08-09T16:55:22.516Z,6.77
2018-08-09T16:57:55.013Z,6.47
2018-08-09T17:00:28.292Z,6.37
2018-08-09T17:03:00.796Z,7.60
2018-08-09T17:05:33.328Z,6.37
2018-08-09T17:08:05.796Z,7.90
2018-08-09T17:10:38.452Z,6.70
2018-08-09T17:13:10.841Z,6.20
2018-08-09T17:15:43.481Z,6.40
2018-08-09T17:18:15.959Z,6.93
2018-08-09T17:20:48.757Z,6.43
2018-08-09T17:23:21.232Z,6.90
2018-08-09T17:25:53.763Z,6.60
2018-08-09T17:28:26.434Z,6.80
2018-08-09T17:30:58.976Z,7.60
2018-08-09T17:33:31.504Z,6.97
2018-08-09T17:36:05.632Z,7.93
2018-08-09T17:38:38.216Z,7.53
2018-08-09T17:41:11.135Z,7.23
2018-08-09T17:43:43.891Z,7.10
2018-08-09T17:46:16.475Z,7.60
2018-08-09T17:48:49.214Z,8.00
2018-08-09T17:51:21.617Z,8.60
2018-08-09T17:53:54.749Z,8.47
2018-08-09T17:56:27.330Z,8.33
2018-08-09T17:58:59.900Z,6.83
2018-08-09T18:01:32.638Z,9.00
2018-08-09T18:04:05.177Z,7.70
2018-08-09T18:06:37.113Z,7.83
2018-08-09T18:09:12.680Z,8.47
2018-08-09T18:11:45.331Z,8.60
2018-08-09T18:14:17.536Z,8.20
2018-08-09T18:16:49.807Z,9.63
2018-08-09T18:19:22.048Z,8.53
2018-08-09T18:21:54.671Z,8.20
2018-08-09T18:24:27.181Z,8.40
2018-08-09T18:26:59.529Z,8.73
2018-08-09T18:29:32.025Z,8.00
2018-08-09T18:32:04.801Z,8.97
2018-08-09T18:34:37.636Z,8.03
2018-08-09T18:37:10.874Z,7.77
2018-08-09T18:39:43.330Z,7.30
2018-08-09T18:42:15.762Z,8.40
2018-08-09T18:44:48.898Z,8.53
2018-08-09T18:47:21.299Z,8.80
2018-08-09T18:49:53.896Z,8.03
2018-08-09T18:52:26.432Z,8.60
2018-08-09T18:54:59.061Z,8.30
2018-08-09T18:57:32.143Z,8.60
2018-08-09T19:00:05.093Z,8.90
2018-08-09T19:02:37.371Z,8.53
2018-08-09T19:05:11.126Z,8.20
2018-08-09T19:07:43.658Z,8.40
2018-08-09T19:10:17.132Z,7.47
2018-08-09T19:12:49.554Z,7.80
2018-08-09T19:15:22.256Z,8.27
2018-08-09T19:17:54.909Z,8.00
2018-08-09T19:20:31.082Z,8.50
2018-08-09T19:23:04.417Z,7.87
2018-08-09T19:25:36.826Z,8.10
2018-08-09T19:28:09.129Z,8.73
2018-08-09T19:30:41.635Z,7.60
2018-08-09T19:33:14.584Z,8.90
2018-08-09T19:35:47.110Z,9.17
2018-08-09T19:38:20.291Z,8.73
2018-08-09T19:40:52.798Z,8.77
2018-08-09T19:43:25.135Z,9.00
2018-08-09T19:45:57.634Z,9.17
2018-08-09T19:48:30.366Z,10.27
2018-08-09T19:51:02.875Z,8.80
2018-08-09T19:53:35.517Z,8.90
2018-08-09T19:56:08.285Z,8.60
2018-08-09T19:58:40.813Z,9.57
2018-08-09T20:01:13.457Z,9.33
2018-08-09T20:03:46.213Z,9.37
2018-08-09T20:06:18.703Z,8.37
2018-08-09T20:08:51.103Z,10.33
2018-08-09T20:11:23.401Z,10.10
2018-08-09T20:13:56.389Z,10.60
2018-08-09T20:16:28.866Z,9.20
2018-08-09T20:19:01.496Z,10.93
2018-08-09T20:21:34.155Z,10.50
2018-08-09T20:24:06.797Z,10.60
2018-08-09T20:26:39.432Z,10.10
2018-08-09T20:29:11.899Z,9.13
2018-08-09T20:31:44.143Z,10.03
2018-08-09T20:34:16.502Z,10.80
2018-08-09T20:36:49.319Z,9.40
2018-08-09T20:39:22.432Z,10.30
2018-08-09T20:41:55.174Z,9.97
2018-08-09T20:44:28.444Z,9.80
2018-08-09T20:47:01.050Z,10.03
2018-08-09T20:49:33.331Z,9.20
2018-08-09T20:52:06.018Z,9.60
2018-08-09T20:54:38.368Z,9.67
2018-08-09T20:57:10.982Z,10.23
2018-08-09T20:59:43.490Z,10.23
2018-08-09T21:02:16.242Z,10.00
2018-08-09T21:04:48.513Z,9.87
2018-08-09T21:07:21.177Z,9.90
2018-08-09T21:09:53.461Z,9.93
2018-08-09T21:12:25.821Z,9.07
2018-08-09T21:14:58.127Z,10.33
2018-08-09T21:17:31.199Z,10.90
2018-08-09T21:20:03.783Z,10.87
2018-08-09T21:22:36.542Z,11.40
2018-08-09T21:25:10.248Z,9.50
2018-08-09T21:27:42.732Z,11.10
2018-08-09T21:30:17.510Z,11.40
2018-08-09T21:32:50.879Z,10.87
2018-08-09T21:35:23.704Z,11.40
2018-08-09T21:37:56.234Z,10.37
2018-08-09T21:40:29.045Z,10.50
2018-08-09T21:43:01.440Z,10.63
2018-08-09T21:45:34.501Z,10.57
2018-08-09T21:48:07.009Z,10.57
2018-08-09T21:50:39.942Z,10.73
2018-08-09T21:53:12.473Z,10.30
2018-08-09T21:55:45.040Z,10.60
2018-08-09T21:58:17.704Z,11.17
2018-08-09T22:00:55.315Z,11.37
2018-08-09T22:03:29.378Z,10.67
2018-08-09T22:06:06.094Z,10.70
2018-08-09T22:08:43.513Z,10.63
2018-08-09T22:11:20.387Z,10.70
2018-08-09T22:13:57.312Z,11.40
2018-08-09T22:16:34.339Z,11.20
2018-08-09T22:19:11.241Z,11.50
2018-08-09T22:21:48.439Z,11.60
2018-08-09T22:24:21.695Z,12.67
2018-08-09T22:26:53.946Z,12.10
2018-08-09T22:29:26.317Z,11.73
2018-08-09T22:31:59.057Z,12.97
2018-08-09T22:34:31.876Z,12.90
2018-08-09T22:37:04.965Z,12.73
2018-08-09T22:39:37.057Z,12.00
2018-08-09T22:42:09.880Z,12.00
2018-08-09T22:44:42.621Z,13.00
2018-08-09T22:47:15.662Z,13.17
2018-08-09T22:49:48.060Z,12.37
2018-08-09T22:52:20.494Z,12.90
2018-08-09T22:54:52.959Z,12.80
2018-08-09T22:57:25.523Z,13.10
2018-08-09T22:59:57.895Z,12.57
2018-08-09T23:02:30.607Z,12.33
2018-08-09T23:05:03.110Z,12.37
2018-08-09T23:07:35.806Z,12.33
2018-08-09T23:10:08.429Z,12.47
2018-08-09T23:12:40.932Z,13.37
2018-08-09T23:15:13.977Z,12.73
2018-08-09T23:17:46.332Z,11.87
2018-08-09T23:20:19.105Z,12.30
2018-08-09T23:22:51.512Z,13.40
2018-08-09T23:25:23.802Z,13.33
2018-08-09T23:27:56.107Z,12.77
2018-08-09T23:30:28.594Z,13.60
2018-08-09T23:33:01.082Z,12.90
2018-08-09T23:35:33.249Z,12.90
2018-08-09T23:38:05.534Z,13.50
2018-08-09T23:40:38.290Z,14.90
2018-08-09T23:43:10.977Z,14.80
2018-08-09T23:45:43.887Z,13.57
2018-08-09T23:48:16.434Z,13.80
2018-08-09T23:50:48.923Z,12.30
2018-08-09T23:53:21.347Z,12.47
2018-08-09T23:55:53.764Z,13.37
2018-08-09T23:58:26.332Z,12.67
